Grand Lake Stream, Maine
Current Conditions -  °F | °C
As of 11:53 PM on Saturday 22 Nov 2014 (Local Time) from KMLT Reporting Station
Overcast Overcast  
Wind Chill: 32°   Ceiling: 3000
Heat Index: 32°   Visibility: 10mi
Dew Point: 17°   Wind: 3mph
Humidity: 54%   Direction: 190°S
Pressure: 29.86"   Gusts: NA
Location:  45.18°N, 67.77°W
Report Text: KMLT 230453Z AUTO 19003KT 10SM BKN030 OVC035 00/M08 A2986 RMK AO2 SLP123 T00001083 400001111
Loading
Personal Weather Stations






























Interactive Weather Map New forecast layout! Learn more

10-Day Weather Forecast

Advertisements
Track Severe Weather on mobile